Aérodrome :
LOGIN :

S'inscrire | Disclaimer

   EN    FR    IT 

 










Légende :    VFR   VFR Marginal   IFR   IFR Intensif   IFR Très Intensif
Visi : 
Plafond : 
>= 8 km
>= 3000ft
5 à 8 km
1000 à 3000 ft
1500m à 5 km
500 à 1000 ft
800 à 1500m
200 à 500 ft
< 800m
< 200 ft
Symboles :   Orages  Brouillard  Fortes neiges  Fortes précipitations  Vent > 20 kt
SIGMETs :   Divers  Orages  Givrage  Turbulence  Onde Orograph.  Cendres Volcan.







- Altitude de l'aérodrome : 93 ft
- Code IATA : HDF


EDAH - Heringsdorf

DERNIER METAR :
  • 121550Z 02005KT 9999 SCT043 03/03 Q1026

METARs EXPIRÉS :
  • 121520Z 36004KT 330V040 9999 BKN030 03/03 Q1026
  • 121450Z 35004KT 9999 BKN011 03/02 Q1026
  • 121420Z VRB03KT 9999 BKN012 03/03 Q1026
  • 121350Z VRB03KT 9999 BKN017 03/02 Q1025
  • 121320Z 01005KT 9999 BKN018 03/02 Q1025

TAF TAF EDAH
Valide du 12 à 15h jusqu'au 13 à 00h UTC


121400Z 1215/1224 04005KT 9999 SCT015 BKN030
TEMPO 1215/1217 BKN012
BECMG 1217/1219 OVC004
Pas de NOTAMs connus pour ce terrain.



MET'MAP, la Météo Aéronautique d'un coup d'oeil ! - Copyright ORBIFLY Décembre 2007 - Disclaimer

ORBIFLY MET'MAP TEAM :

Programmation & Développement : Alexandra Zaïnal
Conception & Développement : Baudouin d'Aumeries
Co-Programmation & Développement : Marc-Olivier Méhu
Soutien technique & logistique : Manuel Goepfert

Contact : metmap@orbifly.com




SOURCES & CREDITS :

   NOAA